Time;durP1;ratioP1;P1;durP2;ratioP2;P2;SDS_P1;SDS_P2;PMS_P1;PMS_P2;Temp;Humidity;BMP_temperature;BMP_pressure;BME280_temperature;BME280_humidity;BME280_pressure;Samples;Min_cycle;Max_cycle;Signal;HPM_P1;HPM_P2
2023/08/15 00:00:37;;;;;;;8.13;3.55;;;;;;;;;;4988302;28;20225;-85
2023/08/15 00:03:03;;;;;;;4.22;3.30;;;;;;;;;;5004015;28;20314;-85
2023/08/15 00:05:31;;;;;;;3.90;3.50;;;;;;;;;;4999779;28;20229;-85
2023/08/15 00:07:59;;;;;;;3.83;3.53;;;;;;;;;;5011512;28;20225;-85
2023/08/15 00:10:25;;;;;;;4.65;4.15;;;;;;;;;;4997025;28;20235;-85
2023/08/15 00:12:53;;;;;;;4.10;3.80;;;;;;;;;;4986061;28;20224;-86
2023/08/15 00:15:18;;;;;;;4.18;3.88;;;;;;;;;;5009287;28;20221;-86
2023/08/15 00:17:46;;;;;;;5.05;3.80;;;;;;;;;;4985160;28;20231;-85
2023/08/15 00:20:14;;;;;;;4.18;3.78;;;;;;;;;;4995284;28;20915;-85
2023/08/15 00:22:39;;;;;;;5.15;3.80;;;;;;;;;;4985592;28;20229;-85
2023/08/15 00:25:05;;;;;;;5.30;3.47;;;;;;;;;;5003824;28;20884;-86
2023/08/15 00:27:31;;;;;;;4.45;3.97;;;;;;;;;;4984570;28;20245;-86
2023/08/15 00:29:56;;;;;;;4.47;4.07;;;;;;;;;;5002998;28;20581;-84
2023/08/15 00:32:22;;;;;;;4.97;4.47;;;;;;;;;;4985186;28;22515;-85
2023/08/15 00:34:48;;;;;;;3.60;3.30;;;;;;;;;;5004628;28;20223;-85
2023/08/15 00:37:19;;;;;;;3.75;3.40;;;;;;;;;;4996823;28;20299;-86
2023/08/15 00:39:47;;;;;;;6.07;3.60;;;;;;;;;;4989912;28;20230;-85
2023/08/15 00:42:13;;;;;;;5.05;4.05;;;;;;;;;;5016496;28;20236;-86
2023/08/15 00:44:42;;;;;;;4.43;4.00;;;;;;;;;;4998457;28;20786;-86
2023/08/15 00:47:13;;;;;;;5.85;4.53;;;;;;;;;;4997982;28;20217;-86
2023/08/15 00:49:41;;;;;;;6.25;4.55;;;;;;;;;;4980934;28;20224;-86
2023/08/15 00:52:09;;;;;;;4.95;4.55;;;;;;;;;;4981359;28;20255;-86
2023/08/15 00:54:37;;;;;;;6.65;4.70;;;;;;;;;;5014113;28;20213;-86
2023/08/15 00:57:10;;;;;;;4.90;4.25;;;;;;;;;;4992058;28;20216;-85
2023/08/15 00:59:35;;;;;;;5.63;4.53;;;;;;;;;;4987149;28;20505;-85
2023/08/15 01:02:04;;;;;;;3.85;3.55;;;;;;;;;;5006015;28;20248;-85
2023/08/15 01:04:30;;;;;;;4.60;3.72;;;;;;;;;;4983895;28;20221;-84
2023/08/15 01:06:58;;;;;;;4.28;3.92;;;;;;;;;;5013217;28;20243;-85
2023/08/15 01:09:24;;;;;;;3.70;3.40;;;;;;;;;;4998797;28;20216;-85
2023/08/15 01:12:04;;;;;;;3.92;3.50;;;;;;;;;;5008650;28;20469;-85
2023/08/15 01:14:33;;;;;;;3.92;3.53;;;;;;;;;;5012602;28;20291;-84
2023/08/15 01:17:01;;;;;;;5.72;4.15;;;;;;;;;;5019790;28;20284;-86
2023/08/15 01:19:44;;;;;;;5.70;3.80;;;;;;;;;;4981483;28;20293;-85
2023/08/15 01:22:20;;;;;;;3.65;3.35;;;;;;;;;;4995696;28;20224;-85
2023/08/15 01:24:46;;;;;;;3.53;3.30;;;;;;;;;;4992372;28;20239;-85
2023/08/15 01:27:13;;;;;;;4.43;3.40;;;;;;;;;;5004656;28;20225;-85
2023/08/15 01:29:41;;;;;;;3.60;3.40;;;;;;;;;;4988725;28;20229;-85
2023/08/15 01:32:25;;;;;;;5.45;3.92;;;;;;;;;;5002003;28;20240;-85
2023/08/15 01:34:58;;;;;;;4.03;3.63;;;;;;;;;;5016156;28;20221;-85
2023/08/15 01:37:30;;;;;;;4.00;3.70;;;;;;;;;;5003471;28;21850;-85
2023/08/15 01:40:00;;;;;;;3.80;3.50;;;;;;;;;;5000714;28;20223;-85
2023/08/15 01:42:30;;;;;;;4.28;3.88;;;;;;;;;;5011563;28;20280;-86
2023/08/15 01:44:58;;;;;;;4.57;4.18;;;;;;;;;;4988621;28;20668;-85
2023/08/15 01:47:26;;;;;;;4.40;4.00;;;;;;;;;;4998371;28;20247;-86
2023/08/15 01:49:54;;;;;;;4.93;4.30;;;;;;;;;;4985845;28;20227;-85
2023/08/15 01:52:20;;;;;;;4.13;3.70;;;;;;;;;;4982357;28;20252;-86
2023/08/15 01:54:51;;;;;;;3.80;3.50;;;;;;;;;;4984998;28;20227;-86
2023/08/15 01:57:19;;;;;;;3.92;3.63;;;;;;;;;;4981881;28;20217;-87
2023/08/15 01:59:49;;;;;;;4.97;3.75;;;;;;;;;;4985132;28;20225;-86
2023/08/15 02:02:14;;;;;;;4.82;4.15;;;;;;;;;;4978836;28;20221;-85
2023/08/15 02:04:45;;;;;;;4.70;4.07;;;;;;;;;;4995325;28;20266;-87
2023/08/15 02:07:13;;;;;;;4.30;3.90;;;;;;;;;;4992519;28;20233;-84
2023/08/15 02:09:41;;;;;;;5.43;3.90;;;;;;;;;;4997482;28;20220;-85
2023/08/15 02:12:07;;;;;;;4.60;3.90;;;;;;;;;;4978612;28;20216;-86
2023/08/15 02:14:35;;;;;;;5.65;4.47;;;;;;;;;;4995560;28;20680;-86
2023/08/15 02:17:02;;;;;;;5.10;4.70;;;;;;;;;;4989559;28;20239;-87
2023/08/15 02:19:28;;;;;;;4.70;4.32;;;;;;;;;;4990871;28;20233;-86
2023/08/15 02:21:56;;;;;;;4.70;4.30;;;;;;;;;;4976581;28;20229;-85
2023/08/15 02:24:24;;;;;;;5.43;4.93;;;;;;;;;;4991582;28;20221;-86
2023/08/15 02:26:54;;;;;;;4.88;4.53;;;;;;;;;;4995042;28;20224;-86
2023/08/15 02:29:19;;;;;;;5.07;3.88;;;;;;;;;;4999306;28;20584;-85
2023/08/15 02:31:50;;;;;;;4.80;4.40;;;;;;;;;;4993397;28;20514;-86
2023/08/15 02:34:18;;;;;;;5.32;4.60;;;;;;;;;;4976418;28;20240;-87
2023/08/15 02:36:48;;;;;;;5.80;5.30;;;;;;;;;;4985256;28;20239;-84
2023/08/15 02:39:17;;;;;;;5.50;5.00;;;;;;;;;;4995285;28;20232;-84
2023/08/15 02:43:04;;;;;;;5.47;4.97;;;;;;;;;;5035799;28;20270;-84
2023/08/15 02:50:30;;;;;;;4.95;4.45;;;;;;;;;;5043860;28;20199;-85
2023/08/15 02:58:00;;;;;;;6.07;4.68;;;;;;;;;;5046479;28;20257;-85
2023/08/15 03:00:28;;;;;;;4.82;4.35;;;;;;;;;;5009135;28;20237;-85
2023/08/15 03:02:57;;;;;;;4.05;3.70;;;;;;;;;;5031787;28;20220;-85
2023/08/15 03:05:26;;;;;;;4.30;3.90;;;;;;;;;;4995672;28;20252;-85
2023/08/15 03:07:58;;;;;;;4.30;3.22;;;;;;;;;;5012638;28;20235;-84
2023/08/15 03:10:24;;;;;;;3.97;3.67;;;;;;;;;;5014582;28;20221;-83
2023/08/15 03:12:54;;;;;;;4.72;3.67;;;;;;;;;;4996570;28;20231;-85
2023/08/15 03:15:25;;;;;;;5.60;3.90;;;;;;;;;;5008715;28;20233;-85
2023/08/15 03:17:51;;;;;;;8.25;3.80;;;;;;;;;;5010900;28;20220;-85
2023/08/15 03:20:19;;;;;;;3.50;3.20;;;;;;;;;;5009598;28;20605;-85
2023/08/15 03:22:47;;;;;;;3.47;3.17;;;;;;;;;;5014204;28;20302;-85
2023/08/15 03:25:12;;;;;;;3.40;3.20;;;;;;;;;;5005963;28;20225;-85
2023/08/15 03:27:43;;;;;;;3.85;3.33;;;;;;;;;;5021190;28;20692;-85
2023/08/15 03:30:11;;;;;;;4.00;3.60;;;;;;;;;;5012878;28;20220;-85
2023/08/15 03:32:37;;;;;;;4.85;3.13;;;;;;;;;;5005322;28;20229;-85
2023/08/15 03:35:03;;;;;;;5.07;3.60;;;;;;;;;;5004912;28;20222;-85
2023/08/15 03:37:31;;;;;;;4.03;3.72;;;;;;;;;;5009752;28;20223;-85
2023/08/15 03:39:58;;;;;;;3.88;3.55;;;;;;;;;;4999886;28;20241;-85
2023/08/15 03:42:24;;;;;;;6.50;3.92;;;;;;;;;;4993919;28;20251;-85
2023/08/15 03:44:51;;;;;;;4.65;3.95;;;;;;;;;;4994453;28;20252;-85
2023/08/15 03:47:20;;;;;;;4.18;3.78;;;;;;;;;;4971624;28;20938;-85
2023/08/15 03:49:46;;;;;;;4.95;4.55;;;;;;;;;;5014879;28;20236;-85
2023/08/15 03:52:12;;;;;;;4.65;4.25;;;;;;;;;;4998578;28;20685;-84
2023/08/15 03:54:41;;;;;;;6.50;5.90;;;;;;;;;;5003760;28;20220;-85
2023/08/15 03:57:06;;;;;;;5.53;4.97;;;;;;;;;;4993060;28;20224;-84
2023/08/15 03:59:32;;;;;;;4.97;4.55;;;;;;;;;;4989181;28;20225;-86
2023/08/15 04:05:45;;;;;;;5.93;5.40;;;;;;;;;;5012290;28;20255;-86
2023/08/15 04:08:14;;;;;;;4.90;4.50;;;;;;;;;;4974586;28;20685;-86
2023/08/15 04:10:39;;;;;;;5.78;5.00;;;;;;;;;;4997535;28;20259;-86
2023/08/15 04:13:09;;;;;;;5.43;5.03;;;;;;;;;;5009855;28;20224;-86
2023/08/15 04:15:35;;;;;;;6.68;4.85;;;;;;;;;;5007996;28;20224;-86
2023/08/15 04:18:05;;;;;;;5.68;5.03;;;;;;;;;;4998273;28;20721;-86
2023/08/15 04:20:31;;;;;;;5.28;4.78;;;;;;;;;;4997687;28;20252;-87
2023/08/15 04:22:56;;;;;;;14.70;6.32;;;;;;;;;;4998974;28;20248;-86
2023/08/15 04:25:25;;;;;;;5.60;5.20;;;;;;;;;;4998006;28;20569;-86
2023/08/15 04:27:53;;;;;;;5.80;5.30;;;;;;;;;;4987324;28;20293;-86
2023/08/15 04:30:21;;;;;;;7.80;5.70;;;;;;;;;;5006434;28;20217;-86
2023/08/15 04:32:47;;;;;;;6.30;5.70;;;;;;;;;;4982093;28;20220;-86
2023/08/15 04:35:14;;;;;;;5.97;5.47;;;;;;;;;;4984582;28;20213;-86
2023/08/15 04:37:39;;;;;;;6.38;5.75;;;;;;;;;;4997108;28;20224;-86
2023/08/15 04:40:11;;;;;;;6.50;5.90;;;;;;;;;;4985243;28;20338;-86
2023/08/15 04:42:37;;;;;;;7.38;6.78;;;;;;;;;;5000151;28;20228;-86
2023/08/15 04:45:03;;;;;;;5.95;5.45;;;;;;;;;;5005226;28;20255;-86
2023/08/15 04:47:28;;;;;;;8.35;5.95;;;;;;;;;;4986006;28;20701;-86
2023/08/15 04:50:27;;;;;;;5.68;4.90;;;;;;;;;;4989402;28;20228;-88
2023/08/15 04:53:00;;;;;;;5.13;4.55;;;;;;;;;;4983279;28;20582;-88
2023/08/15 04:56:05;;;;;;;;;;;;;;;;;;;;;
2023/08/15 04:58:37;;;;;;;7.30;5.25;;;;;;;;;;5000293;28;20225;-88
2023/08/15 05:01:06;;;;;;;5.05;4.55;;;;;;;;;;4973919;28;20568;-88
2023/08/15 05:03:40;;;;;;;9.85;4.63;;;;;;;;;;4979058;28;20224;-87
2023/08/15 05:07:04;;;;;;;4.28;3.83;;;;;;;;;;5021026;28;20219;-88
2023/08/15 05:09:33;;;;;;;6.72;4.10;;;;;;;;;;5006979;28;20229;-89
2023/08/15 05:12:01;;;;;;;17.40;15.73;;;;;;;;;;4995618;28;20247;-88
2023/08/15 05:14:28;;;;;;;25.08;22.70;;;;;;;;;;4983082;28;20224;-88
2023/08/15 05:19:51;;;;;;;6.72;5.72;;;;;;;;;;4987167;28;20659;-88
2023/08/15 05:22:32;;;;;;;6.20;5.30;;;;;;;;;;4992802;28;21591;-87
2023/08/15 05:25:43;;;;;;;5.50;5.03;;;;;;;;;;4983384;28;20285;-88
2023/08/15 05:28:13;;;;;;;5.55;4.88;;;;;;;;;;4975410;28;20225;-88
2023/08/15 05:30:43;;;;;;;6.53;5.35;;;;;;;;;;4968143;28;20237;-88
2023/08/15 05:33:12;;;;;;;5.07;4.63;;;;;;;;;;4977606;28;20296;-88
2023/08/15 05:35:39;;;;;;;5.80;5.20;;;;;;;;;;4997611;28;20278;-88
2023/08/15 05:38:04;;;;;;;6.40;4.47;;;;;;;;;;5014526;28;20225;-88
2023/08/15 05:40:30;;;;;;;4.47;4.07;;;;;;;;;;5004712;28;20243;-86
2023/08/15 05:42:56;;;;;;;4.97;4.20;;;;;;;;;;5007105;28;20217;-88
2023/08/15 05:45:24;;;;;;;4.10;3.80;;;;;;;;;;4986872;28;20214;-89
2023/08/15 05:47:49;;;;;;;5.45;3.97;;;;;;;;;;4997708;28;20224;-89
2023/08/15 05:50:15;;;;;;;6.63;3.53;;;;;;;;;;4984931;28;20238;-88
2023/08/15 05:52:43;;;;;;;4.13;3.72;;;;;;;;;;4998602;28;20236;-88
2023/08/15 05:55:09;;;;;;;6.65;3.45;;;;;;;;;;4998954;28;20240;-89
2023/08/15 05:57:34;;;;;;;6.35;3.90;;;;;;;;;;4994792;28;20224;-87
2023/08/15 06:00:00;;;;;;;4.47;3.75;;;;;;;;;;5008193;28;20233;-89
2023/08/15 06:02:25;;;;;;;6.47;3.90;;;;;;;;;;5007040;28;20597;-89
2023/08/15 06:04:51;;;;;;;4.07;3.67;;;;;;;;;;4982669;28;20221;-89
2023/08/15 06:07:19;;;;;;;3.33;3.13;;;;;;;;;;5006197;28;20224;-89
2023/08/15 06:09:44;;;;;;;3.97;3.63;;;;;;;;;;4995800;28;20228;-88
2023/08/15 06:12:13;;;;;;;4.57;3.33;;;;;;;;;;4994145;28;20224;-90
2023/08/15 06:14:39;;;;;;;4.13;3.72;;;;;;;;;;4991207;28;20282;-89
2023/08/15 06:17:05;;;;;;;4.68;3.83;;;;;;;;;;4982602;28;20236;-89
2023/08/15 06:19:31;;;;;;;6.78;3.80;;;;;;;;;;5009406;28;20600;-89
2023/08/15 06:21:58;;;;;;;7.53;4.00;;;;;;;;;;4978886;28;20226;-86
2023/08/15 06:24:24;;;;;;;4.20;3.85;;;;;;;;;;4994078;28;20256;-90
2023/08/15 06:26:49;;;;;;;3.53;3.22;;;;;;;;;;4987754;28;20228;-89
2023/08/15 06:29:15;;;;;;;5.88;3.33;;;;;;;;;;4990887;28;20287;-89
2023/08/15 06:31:40;;;;;;;4.90;3.63;;;;;;;;;;5000768;28;20307;-90
2023/08/15 06:34:07;;;;;;;4.43;3.35;;;;;;;;;;4997309;28;20224;-89
2023/08/15 06:36:32;;;;;;;3.72;3.25;;;;;;;;;;4999021;28;20303;-89
2023/08/15 06:38:58;;;;;;;3.28;2.97;;;;;;;;;;5008703;28;20221;-90
2023/08/15 06:41:27;;;;;;;4.40;3.60;;;;;;;;;;4996542;28;20231;-89
2023/08/15 06:43:54;;;;;;;5.15;3.25;;;;;;;;;;4989630;28;20860;-90
2023/08/15 06:46:20;;;;;;;3.40;3.08;;;;;;;;;;5005671;28;20220;-90
2023/08/15 06:48:45;;;;;;;4.22;3.42;;;;;;;;;;4978721;28;20225;-91
2023/08/15 06:51:11;;;;;;;3.17;2.97;;;;;;;;;;5031080;28;20862;-88
2023/08/15 06:53:40;;;;;;;3.47;2.95;;;;;;;;;;5012238;28;20204;-86
2023/08/15 06:56:05;;;;;;;5.50;3.25;;;;;;;;;;5008508;28;20264;-88
2023/08/15 06:58:31;;;;;;;3.85;3.55;;;;;;;;;;5017563;28;20216;-86
2023/08/15 07:01:00;;;;;;;3.45;3.15;;;;;;;;;;5004003;28;20237;-87
2023/08/15 07:03:28;;;;;;;7.22;3.90;;;;;;;;;;5002904;28;20282;-88
2023/08/15 07:05:56;;;;;;;4.32;3.95;;;;;;;;;;4988910;28;20216;-87
2023/08/15 07:08:22;;;;;;;3.65;3.33;;;;;;;;;;5004592;28;20596;-88
2023/08/15 07:10:47;;;;;;;5.55;4.22;;;;;;;;;;4991197;28;20233;-88
2023/08/15 07:13:13;;;;;;;4.50;4.10;;;;;;;;;;5000208;28;20288;-87
2023/08/15 07:15:43;;;;;;;4.28;3.53;;;;;;;;;;4981085;28;20217;-87
2023/08/15 07:18:09;;;;;;;4.82;4.15;;;;;;;;;;4989430;28;20221;-89
2023/08/15 07:20:36;;;;;;;4.95;4.45;;;;;;;;;;4989031;28;20234;-85
2023/08/15 07:23:02;;;;;;;5.60;4.72;;;;;;;;;;4996354;28;20212;-86
2023/08/15 07:25:28;;;;;;;7.18;4.70;;;;;;;;;;4991805;28;20295;-87
2023/08/15 07:27:53;;;;;;;10.00;4.90;;;;;;;;;;4983413;28;20230;-86
2023/08/15 07:30:19;;;;;;;5.00;4.25;;;;;;;;;;4975185;28;20221;-86
2023/08/15 07:32:47;;;;;;;5.30;4.80;;;;;;;;;;4969230;28;20953;-85
2023/08/15 07:35:17;;;;;;;7.25;4.65;;;;;;;;;;4996437;28;20223;-84
2023/08/15 07:37:43;;;;;;;6.15;4.93;;;;;;;;;;4975360;28;20294;-87
2023/08/15 07:40:12;;;;;;;5.03;4.60;;;;;;;;;;4990960;28;20228;-86
2023/08/15 07:42:38;;;;;;;7.55;5.22;;;;;;;;;;4988501;28;20757;-84
2023/08/15 07:45:09;;;;;;;10.20;5.65;;;;;;;;;;4980991;28;20224;-84
2023/08/15 07:47:38;;;;;;;6.20;5.03;;;;;;;;;;4991300;28;20775;-83
2023/08/15 07:50:16;;;;;;;8.20;5.57;;;;;;;;;;5006616;28;20213;-85
2023/08/15 07:52:44;;;;;;;7.03;5.55;;;;;;;;;;4982331;28;20271;-84
2023/08/15 07:55:15;;;;;;;8.65;6.07;;;;;;;;;;4983732;28;20235;-85
2023/08/15 07:57:44;;;;;;;8.93;6.35;;;;;;;;;;4993481;28;20219;-86
2023/08/15 08:00:15;;;;;;;7.10;6.40;;;;;;;;;;4992972;28;20228;-86
2023/08/15 08:02:43;;;;;;;10.15;7.03;;;;;;;;;;4988796;28;20221;-86
2023/08/15 08:05:09;;;;;;;11.65;7.60;;;;;;;;;;4995159;28;20218;-85
2023/08/15 08:07:40;;;;;;;10.15;7.65;;;;;;;;;;4999577;28;20231;-86
2023/08/15 08:10:11;;;;;;;7.40;6.68;;;;;;;;;;5001117;28;20227;-85
2023/08/15 08:12:36;;;;;;;9.55;6.53;;;;;;;;;;5000260;28;20588;-85
2023/08/15 08:15:02;;;;;;;7.95;6.57;;;;;;;;;;4992931;28;20225;-86
2023/08/15 08:17:28;;;;;;;9.27;6.45;;;;;;;;;;4978967;28;20235;-85
2023/08/15 08:19:56;;;;;;;6.85;6.07;;;;;;;;;;4984761;28;20290;-85
2023/08/15 08:22:23;;;;;;;7.93;6.43;;;;;;;;;;4996442;28;20229;-84
2023/08/15 08:24:53;;;;;;;6.82;6.10;;;;;;;;;;5001732;28;20743;-86
2023/08/15 08:27:21;;;;;;;9.25;6.32;;;;;;;;;;5006551;28;20291;-85
2023/08/15 08:29:49;;;;;;;7.32;6.63;;;;;;;;;;5008014;28;20224;-85
2023/08/15 08:32:18;;;;;;;7.18;6.45;;;;;;;;;;5011077;28;20232;-89
2023/08/15 08:34:45;;;;;;;8.13;6.90;;;;;;;;;;4996532;28;20293;-85
2023/08/15 08:37:11;;;;;;;8.43;6.78;;;;;;;;;;5008134;28;20225;-85
2023/08/15 08:39:36;;;;;;;8.00;7.15;;;;;;;;;;4992913;28;20233;-89
2023/08/15 08:42:03;;;;;;;10.68;7.93;;;;;;;;;;4992250;28;20229;-88
2023/08/15 08:44:29;;;;;;;8.35;7.53;;;;;;;;;;4995541;28;20227;-86
2023/08/15 08:46:54;;;;;;;11.35;7.82;;;;;;;;;;5009067;28;20299;-85
2023/08/15 08:49:23;;;;;;;9.93;7.13;;;;;;;;;;5004107;28;20196;-84
2023/08/15 08:51:51;;;;;;;13.23;7.10;;;;;;;;;;5026366;28;20235;-86
2023/08/15 08:54:17;;;;;;;7.82;7.03;;;;;;;;;;5002745;28;20307;-87
2023/08/15 08:56:44;;;;;;;6.85;5.53;;;;;;;;;;5023861;28;20288;-86
2023/08/15 08:59:11;;;;;;;8.32;5.47;;;;;;;;;;5015248;28;20819;-87
2023/08/15 09:01:39;;;;;;;7.82;5.47;;;;;;;;;;5023083;28;20227;-87
2023/08/15 09:04:07;;;;;;;8.23;5.00;;;;;;;;;;5017336;28;20504;-90
2023/08/15 09:06:33;;;;;;;7.85;5.75;;;;;;;;;;5002044;28;20233;-86
2023/08/15 09:09:01;;;;;;;6.10;5.50;;;;;;;;;;5007602;28;20206;-84
2023/08/15 09:11:32;;;;;;;7.28;5.60;;;;;;;;;;5001723;28;20233;-86
2023/08/15 09:14:03;;;;;;;5.72;4.82;;;;;;;;;;5015647;28;20228;-85
2023/08/15 09:16:30;;;;;;;5.18;4.78;;;;;;;;;;5019611;28;20243;-89
2023/08/15 09:18:59;;;;;;;4.90;4.50;;;;;;;;;;5009826;28;20244;-85
2023/08/15 09:21:26;;;;;;;5.10;4.45;;;;;;;;;;4998298;28;20251;-85
2023/08/15 09:23:52;;;;;;;5.13;4.63;;;;;;;;;;4986824;28;20228;-87
2023/08/15 09:26:17;;;;;;;7.03;4.68;;;;;;;;;;4992196;28;20266;-87
2023/08/15 09:28:45;;;;;;;5.00;4.18;;;;;;;;;;5024130;28;20304;-88
2023/08/15 09:31:13;;;;;;;5.05;3.90;;;;;;;;;;5017736;28;20227;-87
2023/08/15 09:33:39;;;;;;;5.60;3.63;;;;;;;;;;4981839;28;20216;-88
2023/08/15 09:36:08;;;;;;;3.45;3.00;;;;;;;;;;4987150;28;20224;-87
2023/08/15 09:38:37;;;;;;;3.40;3.10;;;;;;;;;;5005960;28;20217;-88
2023/08/15 09:41:05;;;;;;;3.22;3.03;;;;;;;;;;4981247;28;20224;-86
2023/08/15 09:43:32;;;;;;;3.05;2.78;;;;;;;;;;4995663;28;20224;-85
2023/08/15 09:46:00;;;;;;;3.25;2.97;;;;;;;;;;4991315;28;20941;-87
2023/08/15 09:48:28;;;;;;;4.95;3.40;;;;;;;;;;5006122;28;20217;-87
2023/08/15 09:50:57;;;;;;;8.57;3.30;;;;;;;;;;4973324;28;20648;-86
2023/08/15 09:53:23;;;;;;;3.25;3.05;;;;;;;;;;4982396;28;20292;-86
2023/08/15 09:55:49;;;;;;;3.35;3.13;;;;;;;;;;5005275;28;20624;-86
2023/08/15 09:58:16;;;;;;;4.32;3.10;;;;;;;;;;4987223;28;20299;-86
2023/08/15 10:00:48;;;;;;;3.40;3.10;;;;;;;;;;4995187;28;20295;-87
2023/08/15 10:03:19;;;;;;;3.97;3.67;;;;;;;;;;4995816;28;20291;-85
2023/08/15 10:05:51;;;;;;;3.53;3.22;;;;;;;;;;4984389;28;20273;-86
2023/08/15 10:08:18;;;;;;;4.07;3.67;;;;;;;;;;4992169;28;20228;-87
2023/08/15 10:10:43;;;;;;;12.35;4.13;;;;;;;;;;4995900;28;20229;-86
2023/08/15 10:13:09;;;;;;;7.20;4.00;;;;;;;;;;4977520;28;20247;-86
2023/08/15 10:15:34;;;;;;;4.18;3.85;;;;;;;;;;4995639;28;20228;-85
2023/08/15 10:18:00;;;;;;;4.68;4.22;;;;;;;;;;5000586;28;20232;-88
2023/08/15 10:20:28;;;;;;;4.18;3.40;;;;;;;;;;4995696;28;20225;-88
2023/08/15 10:22:56;;;;;;;4.35;3.95;;;;;;;;;;4994516;28;20280;-87
2023/08/15 10:25:27;;;;;;;3.85;3.55;;;;;;;;;;4972147;28;20236;-88
2023/08/15 10:27:57;;;;;;;4.90;4.40;;;;;;;;;;5011459;28;20236;-87
2023/08/15 10:30:33;;;;;;;4.10;3.67;;;;;;;;;;4978170;28;20216;-86
2023/08/15 10:33:13;;;;;;;4.20;3.70;;;;;;;;;;4993485;28;20696;-86
2023/08/15 10:35:54;;;;;;;3.97;3.60;;;;;;;;;;5014832;28;20243;-86
2023/08/15 10:38:46;;;;;;;4.97;3.78;;;;;;;;;;5017842;28;20237;-85
2023/08/15 10:41:13;;;;;;;4.13;3.72;;;;;;;;;;5007700;28;20230;-85
2023/08/15 10:43:47;;;;;;;3.83;3.42;;;;;;;;;;5021052;28;20220;-87
2023/08/15 10:46:18;;;;;;;5.97;4.28;;;;;;;;;;4997281;28;20220;-85
2023/08/15 10:48:50;;;;;;;4.90;4.50;;;;;;;;;;4992256;28;20272;-88
2023/08/15 10:51:26;;;;;;;4.88;4.45;;;;;;;;;;5005280;28;20232;-87
2023/08/15 10:53:59;;;;;;;4.82;4.32;;;;;;;;;;5000964;28;20225;-84
2023/08/15 10:56:29;;;;;;;5.72;4.55;;;;;;;;;;5001754;28;20239;-87
2023/08/15 10:58:57;;;;;;;4.88;4.47;;;;;;;;;;5013230;28;20251;-86
2023/08/15 11:01:24;;;;;;;4.80;4.40;;;;;;;;;;4997267;28;20264;-87
2023/08/15 11:03:51;;;;;;;5.43;4.32;;;;;;;;;;4983430;28;20646;-87
2023/08/15 11:06:16;;;;;;;4.55;4.15;;;;;;;;;;4989201;28;20225;-88
2023/08/15 11:08:44;;;;;;;4.63;4.20;;;;;;;;;;5003684;28;20280;-85
2023/08/15 11:11:13;;;;;;;3.90;3.60;;;;;;;;;;5014193;28;20235;-86
2023/08/15 11:13:44;;;;;;;4.10;3.70;;;;;;;;;;5007824;28;20209;-86
2023/08/15 11:16:10;;;;;;;4.97;4.47;;;;;;;;;;4995457;28;20213;-88
2023/08/15 11:18:36;;;;;;;5.95;4.13;;;;;;;;;;5013910;28;20534;-90
2023/08/15 11:21:07;;;;;;;4.47;3.92;;;;;;;;;;5021442;28;20216;-86
2023/08/15 11:23:35;;;;;;;4.00;3.70;;;;;;;;;;4976042;28;20229;-86
2023/08/15 11:26:04;;;;;;;4.38;3.88;;;;;;;;;;4989296;28;20216;-88
2023/08/15 11:28:33;;;;;;;4.00;3.67;;;;;;;;;;4973739;28;20238;-88
2023/08/15 11:31:01;;;;;;;4.32;3.67;;;;;;;;;;4993771;28;20268;-88
2023/08/15 11:33:31;;;;;;;5.07;3.72;;;;;;;;;;4990671;28;20728;-87
2023/08/15 11:36:03;;;;;;;5.20;3.72;;;;;;;;;;4995676;28;20235;-87
2023/08/15 11:38:30;;;;;;;4.28;3.88;;;;;;;;;;5005648;28;20227;-86
2023/08/15 11:40:58;;;;;;;4.68;4.25;;;;;;;;;;5005269;28;20213;-88
2023/08/15 11:43:25;;;;;;;4.80;4.18;;;;;;;;;;5019161;28;20224;-85
2023/08/15 11:45:51;;;;;;;4.72;3.90;;;;;;;;;;4999018;28;20224;-86
2023/08/15 11:48:19;;;;;;;4.80;3.97;;;;;;;;;;5001872;28;20229;-87
2023/08/15 11:50:50;;;;;;;3.90;3.60;;;;;;;;;;5005977;28;20228;-87
2023/08/15 11:53:16;;;;;;;4.80;3.97;;;;;;;;;;4998255;28;20217;-86
2023/08/15 11:55:44;;;;;;;4.68;3.75;;;;;;;;;;5024273;28;20213;-86
2023/08/15 11:58:28;;;;;;;5.18;4.07;;;;;;;;;;5018464;28;20301;-88
2023/08/15 12:01:01;;;;;;;5.07;4.57;;;;;;;;;;4985315;28;20236;-88
2023/08/15 12:03:30;;;;;;;4.70;4.18;;;;;;;;;;5000428;28;20220;-88
2023/08/15 12:05:59;;;;;;;4.20;3.90;;;;;;;;;;5004725;28;20537;-85
2023/08/15 12:08:27;;;;;;;6.43;4.13;;;;;;;;;;5014003;28;20308;-86
2023/08/15 12:10:57;;;;;;;4.80;4.38;;;;;;;;;;4995543;28;20278;-85
2023/08/15 12:13:35;;;;;;;5.22;4.70;;;;;;;;;;5019553;28;20236;-86
2023/08/15 12:16:04;;;;;;;5.13;3.70;;;;;;;;;;5005965;28;20226;-87
2023/08/15 12:18:30;;;;;;;4.53;4.13;;;;;;;;;;5005319;28;20205;-88
2023/08/15 12:20:56;;;;;;;5.03;4.53;;;;;;;;;;4993521;28;20240;-87
2023/08/15 12:23:24;;;;;;;5.38;4.13;;;;;;;;;;4997608;28;20323;-85
2023/08/15 12:25:51;;;;;;;5.47;4.80;;;;;;;;;;5006919;28;20267;-88
2023/08/15 12:28:18;;;;;;;5.15;4.53;;;;;;;;;;4995317;28;20233;-85
2023/08/15 12:30:47;;;;;;;4.80;4.38;;;;;;;;;;4999390;28;20616;-87
2023/08/15 12:33:15;;;;;;;4.90;4.07;;;;;;;;;;5010125;28;20278;-86
2023/08/15 12:35:41;;;;;;;5.43;4.05;;;;;;;;;;4992304;28;20215;-87
2023/08/15 12:38:07;;;;;;;5.05;4.32;;;;;;;;;;4989256;28;20290;-89
2023/08/15 12:40:32;;;;;;;6.50;4.80;;;;;;;;;;5008749;28;20224;-85
2023/08/15 12:43:00;;;;;;;4.88;4.38;;;;;;;;;;4996267;28;20283;-87
2023/08/15 12:45:26;;;;;;;5.72;4.40;;;;;;;;;;4997235;28;20225;-86
2023/08/15 12:47:55;;;;;;;5.65;4.80;;;;;;;;;;4999743;28;20213;-87
2023/08/15 12:50:20;;;;;;;5.13;4.40;;;;;;;;;;4993187;28;20227;-86
2023/08/15 12:52:48;;;;;;;5.65;4.70;;;;;;;;;;4988774;28;20221;-86
2023/08/15 12:55:14;;;;;;;4.82;4.20;;;;;;;;;;4999116;28;20304;-87
2023/08/15 12:57:40;;;;;;;6.70;4.70;;;;;;;;;;5004060;28;20228;-88
2023/08/15 13:00:08;;;;;;;10.68;4.35;;;;;;;;;;4996577;28;20245;-85
2023/08/15 13:02:36;;;;;;;6.47;4.15;;;;;;;;;;4985896;28;20266;-86
2023/08/15 13:05:05;;;;;;;8.07;4.07;;;;;;;;;;4994651;28;20229;-87
2023/08/15 13:07:33;;;;;;;5.78;3.75;;;;;;;;;;4972854;28;20229;-85
2023/08/15 13:10:01;;;;;;;6.60;4.50;;;;;;;;;;4995975;28;20214;-87
2023/08/15 13:12:29;;;;;;;7.38;4.22;;;;;;;;;;5017109;28;20225;-86
2023/08/15 13:14:55;;;;;;;5.85;4.18;;;;;;;;;;4997337;28;20222;-85
2023/08/15 13:17:20;;;;;;;5.63;3.70;;;;;;;;;;4992903;28;20232;-85
2023/08/15 13:19:48;;;;;;;6.85;4.15;;;;;;;;;;4989991;28;20217;-85
2023/08/15 13:22:14;;;;;;;6.55;3.47;;;;;;;;;;4993465;28;20247;-86
2023/08/15 13:24:44;;;;;;;7.63;3.90;;;;;;;;;;5000716;28;20220;-86
2023/08/15 13:27:14;;;;;;;3.95;3.55;;;;;;;;;;4985232;28;20209;-86
2023/08/15 13:29:39;;;;;;;5.43;3.95;;;;;;;;;;4990266;28;20689;-86
2023/08/15 13:32:05;;;;;;;6.57;3.75;;;;;;;;;;4993607;28;20213;-86
2023/08/15 13:34:31;;;;;;;5.55;3.85;;;;;;;;;;4989160;28;20213;-85
2023/08/15 13:37:03;;;;;;;7.32;4.57;;;;;;;;;;4989109;28;20666;-84
2023/08/15 13:39:31;;;;;;;5.57;3.60;;;;;;;;;;5000516;28;20265;-86
2023/08/15 13:41:59;;;;;;;5.13;3.35;;;;;;;;;;4992125;28;20225;-82
2023/08/15 13:44:27;;;;;;;7.35;3.40;;;;;;;;;;5008401;28;20221;-85
2023/08/15 13:46:58;;;;;;;4.03;3.13;;;;;;;;;;4982234;28;20300;-86
2023/08/15 13:49:25;;;;;;;5.75;3.33;;;;;;;;;;5002927;28;20700;-86
2023/08/15 13:51:53;;;;;;;5.63;3.33;;;;;;;;;;4984398;28;20228;-84
2023/08/15 13:54:19;;;;;;;4.30;3.25;;;;;;;;;;5013524;28;20278;-86
2023/08/15 13:56:46;;;;;;;5.13;3.17;;;;;;;;;;4998472;28;20224;-83
2023/08/15 13:59:12;;;;;;;3.78;2.90;;;;;;;;;;4990291;28;20235;-85
2023/08/15 14:01:38;;;;;;;6.40;3.00;;;;;;;;;;5014173;28;20694;-85
2023/08/15 14:04:03;;;;;;;6.35;2.80;;;;;;;;;;4990562;28;20243;-86
2023/08/15 14:06:31;;;;;;;5.22;2.83;;;;;;;;;;4997560;28;20224;-87
2023/08/15 14:08:57;;;;;;;3.58;2.67;;;;;;;;;;4980280;28;20331;-89
2023/08/15 14:11:22;;;;;;;4.40;2.92;;;;;;;;;;4988501;28;20259;-84
2023/08/15 14:13:50;;;;;;;4.57;2.83;;;;;;;;;;4989769;28;20741;-84
2023/08/15 14:16:16;;;;;;;5.43;2.97;;;;;;;;;;4998362;28;20248;-86
2023/08/15 14:18:44;;;;;;;5.10;2.83;;;;;;;;;;4973325;28;20268;-85
2023/08/15 14:21:10;;;;;;;4.28;2.70;;;;;;;;;;5016991;28;20216;-85
2023/08/15 14:23:35;;;;;;;3.28;2.55;;;;;;;;;;5002858;28;20231;-84
2023/08/15 14:26:06;;;;;;;4.13;2.85;;;;;;;;;;5000440;28;20663;-85
2023/08/15 14:28:31;;;;;;;4.00;2.90;;;;;;;;;;4983809;28;20228;-85
2023/08/15 14:31:02;;;;;;;3.00;2.60;;;;;;;;;;4988808;28;21052;-85
2023/08/15 14:33:30;;;;;;;5.13;3.03;;;;;;;;;;4994060;28;20263;-84
2023/08/15 14:35:56;;;;;;;3.83;2.47;;;;;;;;;;4992326;28;20229;-86
2023/08/15 14:38:22;;;;;;;5.07;2.85;;;;;;;;;;4995399;28;20337;-83
2023/08/15 14:40:47;;;;;;;4.57;2.60;;;;;;;;;;4999487;28;20251;-86
2023/08/15 14:43:16;;;;;;;6.82;2.67;;;;;;;;;;4997228;28;20240;-81
2023/08/15 14:45:42;;;;;;;4.22;2.50;;;;;;;;;;5002427;28;20232;-82
2023/08/15 14:48:08;;;;;;;4.53;2.42;;;;;;;;;;5005382;28;20235;-83
2023/08/15 14:50:36;;;;;;;8.70;2.83;;;;;;;;;;5014052;28;20273;-85
2023/08/15 14:53:02;;;;;;;4.53;2.70;;;;;;;;;;5006730;28;20280;-84
2023/08/15 14:55:32;;;;;;;4.78;2.42;;;;;;;;;;5003203;28;20991;-86
2023/08/15 14:57:57;;;;;;;4.70;2.22;;;;;;;;;;4981749;28;20388;-85
2023/08/15 15:00:23;;;;;;;2.95;2.03;;;;;;;;;;5003161;28;20646;-87
2023/08/15 15:02:49;;;;;;;4.07;2.35;;;;;;;;;;4988375;28;20221;-85
2023/08/15 15:05:20;;;;;;;5.15;2.30;;;;;;;;;;5007475;28;20204;-84
2023/08/15 15:07:46;;;;;;;5.82;2.33;;;;;;;;;;5002973;28;20209;-87